createdAt,value
2018-09-13T00:04:00.735Z,5.40
2018-09-13T00:08:59.183Z,6.03
2018-09-13T00:13:56.558Z,5.63
2018-09-13T00:18:53.947Z,6.33
2018-09-13T00:23:54.271Z,6.40
2018-09-13T00:28:53.170Z,7.60
2018-09-13T00:33:50.563Z,7.80
2018-09-13T00:38:47.943Z,8.13
2018-09-13T00:43:46.383Z,9.33
2018-09-13T00:48:46.230Z,8.13
2018-09-13T00:53:44.688Z,9.70
2018-09-13T00:58:42.059Z,9.13
2018-09-13T01:03:39.437Z,8.57
2018-09-13T01:08:36.810Z,9.03
2018-09-13T01:13:34.197Z,8.53
2018-09-13T01:18:31.574Z,8.67
2018-09-13T01:23:28.959Z,8.60
2018-09-13T01:28:26.331Z,8.30
2018-09-13T01:33:23.712Z,8.80
2018-09-13T01:38:21.114Z,7.73
2018-09-13T01:43:20.887Z,7.73
2018-09-13T01:48:18.345Z,8.83
2018-09-13T01:53:15.706Z,8.50
2018-09-13T01:58:13.118Z,7.27
2018-09-13T02:03:10.619Z,7.33
2018-09-13T02:08:07.995Z,7.60
2018-09-13T02:13:05.516Z,5.17
2018-09-13T02:18:02.881Z,6.10
2018-09-13T02:23:00.249Z,5.70
2018-09-13T02:27:58.635Z,4.60
2018-09-13T02:32:55.991Z,5.30
2018-09-13T02:37:53.346Z,4.67
2018-09-13T02:42:50.857Z,3.90
2018-09-13T02:47:48.218Z,3.80
2018-09-13T02:52:45.571Z,4.97
2018-09-13T02:57:42.938Z,5.80
2018-09-13T03:02:40.311Z,5.60
2018-09-13T03:07:37.671Z,5.90
2018-09-13T03:12:35.055Z,6.70
2018-09-13T03:17:32.410Z,6.47
2018-09-13T03:22:29.815Z,7.40
2018-09-13T03:27:27.287Z,6.17
2018-09-13T03:32:24.643Z,7.70
2018-09-13T03:37:21.998Z,7.13
2018-09-13T03:42:19.364Z,7.27
2018-09-13T03:47:16.746Z,8.00
2018-09-13T03:52:14.108Z,7.67
2018-09-13T03:57:11.479Z,10.43
2018-09-13T04:02:08.854Z,8.27
2018-09-13T04:07:06.248Z,9.27
2018-09-13T04:12:03.682Z,8.77
2018-09-13T04:17:01.040Z,9.07
2018-09-13T04:21:58.397Z,8.70
2018-09-13T04:26:55.747Z,7.70
2018-09-13T04:31:53.115Z,7.93
2018-09-13T04:36:50.524Z,7.57
2018-09-13T04:41:47.949Z,9.10
2018-09-13T04:46:45.319Z,9.97
2018-09-13T04:51:42.707Z,12.00
2018-09-13T04:56:40.071Z,10.47
2018-09-13T05:01:39.330Z,9.80
2018-09-13T05:06:36.747Z,9.60
2018-09-13T05:11:34.165Z,10.17
2018-09-13T05:16:31.627Z,10.00
2018-09-13T05:21:29.262Z,9.00
2018-09-13T05:26:26.671Z,8.60
2018-09-13T05:31:24.641Z,8.50
2018-09-13T05:36:22.089Z,8.30
2018-09-13T05:41:19.476Z,6.80
2018-09-13T05:46:16.839Z,7.20
2018-09-13T05:51:14.315Z,7.30
2018-09-13T05:56:11.687Z,5.90
2018-09-13T06:01:09.083Z,6.60
2018-09-13T06:06:06.471Z,8.00
2018-09-13T06:11:03.891Z,7.33
2018-09-13T06:16:01.285Z,6.20
2018-09-13T06:20:58.754Z,5.43
2018-09-13T06:25:56.142Z,7.00
2018-09-13T06:30:53.527Z,6.03
2018-09-13T06:35:50.883Z,6.10
2018-09-13T06:40:48.285Z,6.17
2018-09-13T06:45:45.662Z,5.40
2018-09-13T06:50:43.032Z,5.70
2018-09-13T06:55:40.409Z,4.20
2018-09-13T07:00:38.015Z,4.20
2018-09-13T07:05:35.395Z,3.27
2018-09-13T07:10:35.110Z,3.80
2018-09-13T07:15:32.515Z,4.20
2018-09-13T07:20:29.896Z,2.47
2018-09-13T07:25:27.266Z,3.60
2018-09-13T07:30:24.639Z,3.07
2018-09-13T07:35:22.048Z,4.10
2018-09-13T07:40:20.522Z,4.60
2018-09-13T07:45:17.924Z,5.43
2018-09-13T07:50:15.597Z,6.50
2018-09-13T07:55:12.967Z,6.50
2018-09-13T08:00:10.355Z,6.20
2018-09-13T08:05:07.813Z,6.90
2018-09-13T08:10:06.325Z,5.50
2018-09-13T08:15:03.866Z,6.90
2018-09-13T08:20:01.266Z,7.90
2018-09-13T08:24:58.859Z,7.47
2018-09-13T08:29:56.375Z,8.70
2018-09-13T08:34:54.200Z,7.10
2018-09-13T08:39:53.086Z,6.03
2018-09-13T08:44:50.695Z,5.90
2018-09-13T08:49:48.079Z,5.80
2018-09-13T08:54:45.463Z,4.30
2018-09-13T08:59:42.916Z,3.53
2018-09-13T09:04:40.288Z,4.27
2018-09-13T09:09:42.334Z,5.10
2018-09-13T09:14:39.776Z,3.63
2018-09-13T09:19:37.168Z,2.73
2018-09-13T09:24:34.536Z,3.10
2018-09-13T09:29:31.951Z,2.97
2018-09-13T09:34:29.329Z,2.33
2018-09-13T09:39:33.050Z,1.77
2018-09-13T09:44:30.479Z,2.10
2018-09-13T09:49:27.855Z,1.93
2018-09-13T09:54:25.243Z,3.13
2018-09-13T09:59:22.615Z,1.20
2018-09-13T10:04:20.029Z,2.47
2018-09-13T10:09:23.360Z,2.50
2018-09-13T10:14:20.804Z,2.03
2018-09-13T10:19:23.935Z,2.37
2018-09-13T10:24:26.866Z,1.93
2018-09-13T10:29:29.894Z,3.33
2018-09-13T10:34:32.987Z,3.60
2018-09-13T10:39:42.233Z,3.60
2018-09-13T10:44:45.350Z,3.57
2018-09-13T10:49:48.407Z,3.00
2018-09-13T10:54:45.783Z,3.10
2018-09-13T10:59:44.377Z,3.67
2018-09-13T11:04:41.780Z,3.83
2018-09-13T11:09:47.331Z,3.03
2018-09-13T11:14:51.272Z,3.20
2018-09-13T11:19:48.723Z,2.90
2018-09-13T11:24:46.505Z,3.20
2018-09-13T11:29:44.450Z,2.50
2018-09-13T11:34:42.535Z,3.10
2018-09-13T11:39:49.300Z,4.03
2018-09-13T11:44:46.663Z,3.00
2018-09-13T11:49:44.047Z,2.60
2018-09-13T11:54:41.407Z,3.33
2018-09-13T11:59:38.787Z,2.43
2018-09-13T12:04:36.174Z,2.57
2018-09-13T12:09:36.756Z,3.33
2018-09-13T12:14:34.978Z,4.17
2018-09-13T12:19:36.150Z,3.17
2018-09-13T12:24:43.214Z,3.43
2018-09-13T12:29:46.441Z,3.57
2018-09-13T12:34:47.886Z,3.67
2018-09-13T12:39:53.895Z,2.70
2018-09-13T12:44:56.543Z,3.10
2018-09-13T12:49:57.440Z,3.13
2018-09-13T12:54:58.594Z,3.10
2018-09-13T12:59:59.129Z,2.60
2018-09-13T13:10:14.431Z,3.40
2018-09-13T13:15:13.501Z,2.20
2018-09-13T13:20:16.105Z,2.30
2018-09-13T13:25:15.957Z,2.70
2018-09-13T13:30:16.745Z,2.30
2018-09-13T13:35:17.583Z,2.67
2018-09-13T13:40:17.754Z,1.83
2018-09-13T13:45:15.214Z,2.30
2018-09-13T13:50:12.619Z,2.40
2018-09-13T13:55:10.022Z,1.87
2018-09-13T14:00:07.447Z,1.70
2018-09-13T14:05:04.895Z,1.80
2018-09-13T14:10:03.482Z,2.23
2018-09-13T14:15:00.953Z,1.87
2018-09-13T14:19:58.360Z,1.83
2018-09-13T14:24:55.752Z,2.47
2018-09-13T14:29:53.222Z,1.67
2018-09-13T14:34:50.599Z,1.80
2018-09-13T14:39:57.672Z,2.00
2018-09-13T14:44:55.123Z,1.40
2018-09-13T14:49:52.524Z,1.90
2018-09-13T14:54:49.929Z,1.70
2018-09-13T14:59:47.326Z,1.50
2018-09-13T15:04:44.835Z,1.80
2018-09-13T15:09:45.690Z,1.90
2018-09-13T15:14:43.150Z,2.30
2018-09-13T15:19:40.541Z,1.87
2018-09-13T15:24:38.062Z,1.60
2018-09-13T15:29:35.355Z,1.80
2018-09-13T15:34:32.743Z,1.90
2018-09-13T15:39:33.658Z,1.60
2018-09-13T15:44:31.176Z,1.47
2018-09-13T15:49:28.556Z,1.60
2018-09-13T15:54:25.962Z,1.83
2018-09-13T15:59:23.462Z,1.63
2018-09-13T16:04:20.890Z,2.93
2018-09-13T16:09:19.206Z,2.17
2018-09-13T16:14:17.430Z,1.70
2018-09-13T16:19:14.819Z,1.73
2018-09-13T16:24:12.203Z,1.83
2018-09-13T16:29:09.600Z,2.00
2018-09-13T16:34:07.023Z,2.57
2018-09-13T16:39:24.721Z,2.20
2018-09-13T16:44:27.707Z,2.13
2018-09-13T16:49:25.108Z,2.30
2018-09-13T16:54:22.509Z,2.03
2018-09-13T16:59:19.939Z,2.30
2018-09-13T17:04:17.344Z,2.07
2018-09-13T17:09:16.339Z,2.80
2018-09-13T17:14:13.771Z,3.10
2018-09-13T17:19:11.167Z,2.00
2018-09-13T17:24:09.383Z,1.60
2018-09-13T17:29:06.806Z,2.67
2018-09-13T17:34:04.224Z,2.80
2018-09-13T17:39:01.640Z,2.27
2018-09-13T17:43:59.043Z,2.47
2018-09-13T17:48:56.443Z,2.10
2018-09-13T17:53:53.872Z,2.40
2018-09-13T17:58:51.263Z,3.33
2018-09-13T18:03:48.710Z,4.00
2018-09-13T18:08:46.162Z,3.10
2018-09-13T18:13:43.571Z,4.50
2018-09-13T18:18:41.014Z,4.20
2018-09-13T18:23:38.460Z,4.57
2018-09-13T18:28:35.802Z,4.50
2018-09-13T18:33:33.175Z,4.27
2018-09-13T18:38:32.411Z,5.13
2018-09-13T18:43:29.790Z,6.30
2018-09-13T18:48:27.203Z,5.50
2018-09-13T18:53:24.675Z,5.30
2018-09-13T18:58:22.121Z,5.70
2018-09-13T19:03:19.507Z,5.93
2018-09-13T19:08:16.879Z,6.17
2018-09-13T19:13:14.313Z,6.80
2018-09-13T19:18:11.680Z,6.90
2018-09-13T19:23:09.054Z,7.60
2018-09-13T19:28:06.431Z,7.37
2018-09-13T19:33:03.800Z,7.10
2018-09-13T19:38:01.167Z,8.00
2018-09-13T19:42:58.591Z,8.43
2018-09-13T19:47:55.960Z,6.97
2018-09-13T19:52:53.327Z,8.23
2018-09-13T19:57:50.694Z,8.10
2018-09-13T20:02:48.115Z,7.27
2018-09-13T20:07:45.495Z,7.50
2018-09-13T20:12:42.907Z,8.30
2018-09-13T20:17:40.282Z,8.70
2018-09-13T20:22:37.651Z,9.30
2018-09-13T20:27:35.055Z,8.67
2018-09-13T20:32:32.455Z,9.37
2018-09-13T20:37:29.814Z,7.73
2018-09-13T20:42:27.195Z,9.30
2018-09-13T20:47:25.915Z,7.20
2018-09-13T20:52:23.498Z,7.30
2018-09-13T20:57:20.884Z,10.90
2018-09-13T21:02:18.247Z,8.50
2018-09-13T21:07:15.668Z,7.33
2018-09-13T21:12:13.070Z,7.97
2018-09-13T21:17:10.524Z,7.20
2018-09-13T21:22:08.823Z,8.30
2018-09-13T21:27:06.192Z,8.87
2018-09-13T21:32:03.599Z,7.53
2018-09-13T21:37:00.963Z,8.40
2018-09-13T21:41:58.680Z,9.60
2018-09-13T21:46:56.100Z,11.30
2018-09-13T21:51:53.522Z,10.53
2018-09-13T21:56:50.890Z,8.17
2018-09-13T22:01:48.251Z,10.93
2018-09-13T22:06:45.614Z,10.10
2018-09-13T22:11:43.139Z,7.60
2018-09-13T22:16:40.507Z,7.40
2018-09-13T22:21:37.883Z,8.33
2018-09-13T22:26:35.692Z,9.63
2018-09-13T22:31:33.936Z,7.97
2018-09-13T22:36:31.334Z,10.33
2018-09-13T22:41:28.723Z,8.67
2018-09-13T22:46:26.206Z,8.83
2018-09-13T22:51:23.585Z,7.87
2018-09-13T22:56:20.975Z,10.57
2018-09-13T23:01:18.370Z,6.77
2018-09-13T23:06:15.745Z,7.70
2018-09-13T23:11:13.130Z,8.80
2018-09-13T23:16:10.602Z,8.80
2018-09-13T23:21:07.883Z,10.83
2018-09-13T23:26:05.260Z,8.23
2018-09-13T23:31:02.624Z,9.60
2018-09-13T23:35:59.999Z,10.20
2018-09-13T23:40:57.447Z,10.47
2018-09-13T23:45:54.820Z,9.73
2018-09-13T23:50:52.190Z,9.43
2018-09-13T23:55:49.567Z,9.90
